sensor_id;sensor_type;location;lat;lon;timestamp;pressure;altitude;pressure_sealevel;temperature;humidity
28354;BME280;15603;50.878;8.036;2023-05-07T00:02:01;146568.16;;;13.97;100.00
28354;BME280;15603;50.878;8.036;2023-05-07T00:04:30;146531.63;;;13.81;100.00
28354;BME280;15603;50.878;8.036;2023-05-07T00:07:04;146536.50;;;13.83;100.00
28354;BME280;15603;50.878;8.036;2023-05-07T00:09:31;146559.63;;;13.93;100.00
28354;BME280;15603;50.878;8.036;2023-05-07T00:11:58;146556.00;;;13.91;100.00
28354;BME280;15603;50.878;8.036;2023-05-07T00:14:25;146529.22;;;13.80;100.00
28354;BME280;15603;50.878;8.036;2023-05-07T00:16:52;146512.16;;;13.73;100.00
28354;BME280;15603;50.878;8.036;2023-05-07T00:19:19;146523.09;;;13.78;100.00
28354;BME280;15603;50.878;8.036;2023-05-07T00:21:46;146499.94;;;13.68;100.00
28354;BME280;15603;50.878;8.036;2023-05-07T00:24:13;146503.63;;;13.69;100.00
28354;BME280;15603;50.878;8.036;2023-05-07T00:26:40;146520.69;;;13.77;100.00
28354;BME280;15603;50.878;8.036;2023-05-07T00:29:07;146540.16;;;13.85;100.00
28354;BME280;15603;50.878;8.036;2023-05-07T00:31:34;146526.75;;;13.79;100.00
28354;BME280;15603;50.878;8.036;2023-05-07T00:34:02;146531.63;;;13.81;100.00
28354;BME280;15603;50.878;8.036;2023-05-07T00:36:29;146514.56;;;13.74;100.00
28354;BME280;15603;50.878;8.036;2023-05-07T00:38:59;146502.41;;;13.69;100.00
28354;BME280;15603;50.878;8.036;2023-05-07T00:41:26;146536.50;;;13.83;100.00
28354;BME280;15603;50.878;8.036;2023-05-07T00:43:53;146551.09;;;13.89;100.00
28354;BME280;15603;50.878;8.036;2023-05-07T00:46:21;146473.16;;;13.57;100.00
28354;BME280;15603;50.878;8.036;2023-05-07T00:48:49;146531.63;;;13.81;100.00
28354;BME280;15603;50.878;8.036;2023-05-07T00:51:17;146465.88;;;13.53;100.00
28354;BME280;15603;50.878;8.036;2023-05-07T00:53:45;146514.56;;;13.74;100.00
28354;BME280;15603;50.878;8.036;2023-05-07T00:56:13;146456.13;;;13.49;100.00
28354;BME280;15603;50.878;8.036;2023-05-07T00:58:40;146502.41;;;13.69;100.00
28354;BME280;15603;50.878;8.036;2023-05-07T01:01:07;146461.00;;;13.51;100.00
28354;BME280;15603;50.878;8.036;2023-05-07T01:03:34;146480.47;;;13.60;100.00
28354;BME280;15603;50.878;8.036;2023-05-07T01:06:03;146504.81;;;13.70;100.00
28354;BME280;15603;50.878;8.036;2023-05-07T01:08:32;146419.59;;;13.34;100.00
28354;BME280;15603;50.878;8.036;2023-05-07T01:11:00;146499.94;;;13.68;100.00
28354;BME280;15603;50.878;8.036;2023-05-07T01:13:27;146492.66;;;13.65;100.00
28354;BME280;15603;50.878;8.036;2023-05-07T01:15:55;146485.34;;;13.62;100.00
28354;BME280;15603;50.878;8.036;2023-05-07T01:18:22;146456.13;;;13.49;100.00
28354;BME280;15603;50.878;8.036;2023-05-07T01:20:50;146508.47;;;13.71;100.00
28354;BME280;15603;50.878;8.036;2023-05-07T01:23:18;146454.88;;;13.49;100.00
28354;BME280;15603;50.878;8.036;2023-05-07T01:25:54;146420.81;;;13.34;100.00
28354;BME280;15603;50.878;8.036;2023-05-07T01:28:24;146492.66;;;13.65;100.00
28354;BME280;15603;50.878;8.036;2023-05-07T01:31:00;146463.41;;;13.52;100.00
28354;BME280;15603;50.878;8.036;2023-05-07T01:33:31;146510.94;;;13.72;100.00
28354;BME280;15603;50.878;8.036;2023-05-07T01:36:00;146498.75;;;13.67;100.00
28354;BME280;15603;50.878;8.036;2023-05-07T01:38:30;146547.47;;;13.88;100.00
28354;BME280;15603;50.878;8.036;2023-05-07T01:40:57;146542.63;;;13.86;100.00
28354;BME280;15603;50.878;8.036;2023-05-07T01:43:25;146468.28;;;13.54;100.00
28354;BME280;15603;50.878;8.036;2023-05-07T01:45:52;146495.09;;;13.66;100.00
28354;BME280;15603;50.878;8.036;2023-05-07T01:48:19;146497.53;;;13.67;100.00
28354;BME280;15603;50.878;8.036;2023-05-07T01:50:47;146509.69;;;13.72;100.00
28354;BME280;15603;50.878;8.036;2023-05-07T01:53:14;146499.94;;;13.68;100.00
28354;BME280;15603;50.878;8.036;2023-05-07T01:55:42;146486.56;;;13.62;100.00
28354;BME280;15603;50.878;8.036;2023-05-07T01:58:09;146451.25;;;13.47;100.00
28354;BME280;15603;50.878;8.036;2023-05-07T02:00:37;146468.28;;;13.54;100.00
28354;BME280;15603;50.878;8.036;2023-05-07T02:03:04;146465.88;;;13.53;100.00
28354;BME280;15603;50.878;8.036;2023-05-07T02:05:40;146418.34;;;13.33;100.00
28354;BME280;15603;50.878;8.036;2023-05-07T02:08:14;146463.41;;;13.52;100.00
28354;BME280;15603;50.878;8.036;2023-05-07T02:10:41;146389.09;;;13.21;100.00
28354;BME280;15603;50.878;8.036;2023-05-07T02:13:09;146429.34;;;13.38;100.00
28354;BME280;15603;50.878;8.036;2023-05-07T02:15:37;146433.00;;;13.40;100.00
28354;BME280;15603;50.878;8.036;2023-05-07T02:18:06;146479.28;;;13.59;100.00
28354;BME280;15603;50.878;8.036;2023-05-07T02:20:33;146390.31;;;13.22;100.00
28354;BME280;15603;50.878;8.036;2023-05-07T02:23:01;146463.41;;;13.52;100.00
28354;BME280;15603;50.878;8.036;2023-05-07T02:25:29;146458.53;;;13.50;100.00
28354;BME280;15603;50.878;8.036;2023-05-07T02:27:57;146426.88;;;13.37;100.00
28354;BME280;15603;50.878;8.036;2023-05-07T02:30:36;146407.34;;;13.29;100.00
28354;BME280;15603;50.878;8.036;2023-05-07T02:33:03;146418.34;;;13.33;100.00
28354;BME280;15603;50.878;8.036;2023-05-07T02:35:31;146407.34;;;13.29;100.00
28354;BME280;15603;50.878;8.036;2023-05-07T02:37:58;146424.47;;;13.36;100.00
28354;BME280;15603;50.878;8.036;2023-05-07T02:40:25;146475.59;;;13.58;100.00
28354;BME280;15603;50.878;8.036;2023-05-07T02:42:53;146441.47;;;13.43;100.00
28354;BME280;15603;50.878;8.036;2023-05-07T02:45:20;146478.03;;;13.59;100.00
28354;BME280;15603;50.878;8.036;2023-05-07T02:47:49;146491.41;;;13.64;100.00
28354;BME280;15603;50.878;8.036;2023-05-07T02:50:16;146463.41;;;13.52;100.00
28354;BME280;15603;50.878;8.036;2023-05-07T02:52:43;146470.75;;;13.55;100.00
28354;BME280;15603;50.878;8.036;2023-05-07T02:55:10;146448.81;;;13.46;100.00
28354;BME280;15603;50.878;8.036;2023-05-07T02:57:38;146407.34;;;13.29;100.00
28354;BME280;15603;50.878;8.036;2023-05-07T03:00:13;146470.75;;;13.55;100.00
28354;BME280;15603;50.878;8.036;2023-05-07T03:02:47;146464.66;;;13.53;100.00
28354;BME280;15603;50.878;8.036;2023-05-07T03:05:14;146456.13;;;13.49;100.00
28354;BME280;15603;50.878;8.036;2023-05-07T03:07:41;146404.91;;;13.28;100.00
28354;BME280;15603;50.878;8.036;2023-05-07T03:10:13;146424.47;;;13.36;100.00
28354;BME280;15603;50.878;8.036;2023-05-07T03:12:40;146419.59;;;13.34;100.00
28354;BME280;15603;50.878;8.036;2023-05-07T03:15:09;146451.25;;;13.47;100.00
28354;BME280;15603;50.878;8.036;2023-05-07T03:17:37;146431.75;;;13.39;100.00
28354;BME280;15603;50.878;8.036;2023-05-07T03:20:05;146424.47;;;13.36;100.00
28354;BME280;15603;50.878;8.036;2023-05-07T03:22:32;146403.69;;;13.27;100.00
28354;BME280;15603;50.878;8.036;2023-05-07T03:24:59;146414.72;;;13.32;100.00
28354;BME280;15603;50.878;8.036;2023-05-07T03:27:26;146347.69;;;13.04;100.00
28354;BME280;15603;50.878;8.036;2023-05-07T03:29:54;146429.34;;;13.38;100.00
28354;BME280;15603;50.878;8.036;2023-05-07T03:32:21;146424.47;;;13.36;100.00
28354;BME280;15603;50.878;8.036;2023-05-07T03:34:48;146436.63;;;13.41;100.00
28354;BME280;15603;50.878;8.036;2023-05-07T03:37:16;146422.00;;;13.35;100.00
28354;BME280;15603;50.878;8.036;2023-05-07T03:39:43;146400.03;;;13.26;100.00
28354;BME280;15603;50.878;8.036;2023-05-07T03:42:10;146350.13;;;13.05;100.00
28354;BME280;15603;50.878;8.036;2023-05-07T03:44:37;146395.16;;;13.24;100.00
28354;BME280;15603;50.878;8.036;2023-05-07T03:47:04;146374.50;;;13.15;100.00
28354;BME280;15603;50.878;8.036;2023-05-07T03:49:32;146428.13;;;13.38;100.00
28354;BME280;15603;50.878;8.036;2023-05-07T03:51:59;146389.09;;;13.21;100.00
28354;BME280;15603;50.878;8.036;2023-05-07T03:54:26;146379.34;;;13.17;100.00
28354;BME280;15603;50.878;8.036;2023-05-07T03:56:53;146367.16;;;13.12;100.00
28354;BME280;15603;50.878;8.036;2023-05-07T03:59:21;146390.31;;;13.22;100.00
28354;BME280;15603;50.878;8.036;2023-05-07T04:01:49;146361.09;;;13.09;100.00
28354;BME280;15603;50.878;8.036;2023-05-07T04:04:19;146400.03;;;13.26;100.00
28354;BME280;15603;50.878;8.036;2023-05-07T04:06:47;146419.59;;;13.34;100.00
28354;BME280;15603;50.878;8.036;2023-05-07T04:09:14;146424.47;;;13.36;100.00
28354;BME280;15603;50.878;8.036;2023-05-07T04:11:41;146395.16;;;13.24;100.00
28354;BME280;15603;50.878;8.036;2023-05-07T04:14:10;146413.47;;;13.31;100.00
28354;BME280;15603;50.878;8.036;2023-05-07T04:16:37;146412.28;;;13.31;100.00
28354;BME280;15603;50.878;8.036;2023-05-07T04:19:05;146441.47;;;13.43;100.00
28354;BME280;15603;50.878;8.036;2023-05-07T04:21:32;146434.19;;;13.40;100.00
28354;BME280;15603;50.878;8.036;2023-05-07T04:23:59;146379.34;;;13.17;100.00
28354;BME280;15603;50.878;8.036;2023-05-07T04:26:26;146422.00;;;13.35;100.00
28354;BME280;15603;50.878;8.036;2023-05-07T04:28:53;146398.81;;;13.25;100.00
28354;BME280;15603;50.878;8.036;2023-05-07T04:31:20;146407.34;;;13.29;100.00
28354;BME280;15603;50.878;8.036;2023-05-07T04:33:51;146411.06;;;13.30;100.00
28354;BME280;15603;50.878;8.036;2023-05-07T04:36:19;146404.91;;;13.28;100.00
28354;BME280;15603;50.878;8.036;2023-05-07T04:38:56;146422.00;;;13.35;100.00
28354;BME280;15603;50.878;8.036;2023-05-07T04:41:23;146452.47;;;13.48;100.00
28354;BME280;15603;50.878;8.036;2023-05-07T04:43:50;146448.81;;;13.46;100.00
28354;BME280;15603;50.878;8.036;2023-05-07T04:46:20;146457.34;;;13.50;100.00
28354;BME280;15603;50.878;8.036;2023-05-07T04:48:49;146458.53;;;13.50;100.00
28354;BME280;15603;50.878;8.036;2023-05-07T04:51:16;146491.41;;;13.64;100.00
28354;BME280;15603;50.878;8.036;2023-05-07T04:53:43;146481.69;;;13.60;100.00
28354;BME280;15603;50.878;8.036;2023-05-07T04:56:10;146514.56;;;13.74;100.00
28354;BME280;15603;50.878;8.036;2023-05-07T04:58:41;146534.09;;;13.82;100.00
28354;BME280;15603;50.878;8.036;2023-05-07T05:01:09;146535.28;;;13.83;100.00
28354;BME280;15603;50.878;8.036;2023-05-07T05:03:36;146517.00;;;13.75;100.00
28354;BME280;15603;50.878;8.036;2023-05-07T05:06:04;146515.81;;;13.74;100.00
28354;BME280;15603;50.878;8.036;2023-05-07T05:08:33;146563.31;;;13.94;100.00
28354;BME280;15603;50.878;8.036;2023-05-07T05:11:02;146526.75;;;13.79;100.00
28354;BME280;15603;50.878;8.036;2023-05-07T05:13:31;146553.56;;;13.90;100.00
28354;BME280;15603;50.878;8.036;2023-05-07T05:16:00;146560.88;;;13.93;100.00
28354;BME280;15603;50.878;8.036;2023-05-07T05:18:30;146538.94;;;13.84;100.00
28354;BME280;15603;50.878;8.036;2023-05-07T05:20:57;146563.31;;;13.94;100.00
28354;BME280;15603;50.878;8.036;2023-05-07T05:23:25;146536.50;;;13.83;100.00
28354;BME280;15603;50.878;8.036;2023-05-07T05:25:56;146580.38;;;14.02;100.00
28354;BME280;15603;50.878;8.036;2023-05-07T05:28:26;146580.38;;;14.02;100.00
28354;BME280;15603;50.878;8.036;2023-05-07T05:30:55;146542.63;;;13.86;100.00
28354;BME280;15603;50.878;8.036;2023-05-07T05:33:23;146608.38;;;14.13;100.00
28354;BME280;15603;50.878;8.036;2023-05-07T05:35:50;146644.94;;;14.29;100.00
28354;BME280;15603;50.878;8.036;2023-05-07T05:38:17;146649.81;;;14.31;100.00
28354;BME280;15603;50.878;8.036;2023-05-07T05:40:45;146634.00;;;14.24;100.00
28354;BME280;15603;50.878;8.036;2023-05-07T05:43:13;146663.22;;;14.37;100.00
28354;BME280;15603;50.878;8.036;2023-05-07T05:45:40;146629.13;;;14.22;100.00
28354;BME280;15603;50.878;8.036;2023-05-07T05:48:07;146675.41;;;14.42;100.00
28354;BME280;15603;50.878;8.036;2023-05-07T05:50:35;146724.19;;;14.62;100.00
28354;BME280;15603;50.878;8.036;2023-05-07T05:53:04;146751.00;;;14.73;100.00
28354;BME280;15603;50.878;8.036;2023-05-07T05:55:32;146752.22;;;14.74;100.00
28354;BME280;15603;50.878;8.036;2023-05-07T05:58:00;146819.25;;;15.02;100.00
28354;BME280;15603;50.878;8.036;2023-05-07T06:00:29;146875.34;;;15.26;100.00
28354;BME280;15603;50.878;8.036;2023-05-07T06:03:02;146880.22;;;15.28;100.00
28354;BME280;15603;50.878;8.036;2023-05-07T06:05:29;146875.34;;;15.26;100.00
28354;BME280;15603;50.878;8.036;2023-05-07T06:07:57;146955.84;;;15.60;100.00
28354;BME280;15603;50.878;8.036;2023-05-07T06:10:26;146987.59;;;15.73;100.00
28354;BME280;15603;50.878;8.036;2023-05-07T06:12:54;146960.72;;;15.62;100.00
28354;BME280;15603;50.878;8.036;2023-05-07T06:15:22;146999.81;;;15.78;100.00
28354;BME280;15603;50.878;8.036;2023-05-07T06:17:49;147014.44;;;15.84;100.00
28354;BME280;15603;50.878;8.036;2023-05-07T06:20:17;146981.47;;;15.70;100.00
28354;BME280;15603;50.878;8.036;2023-05-07T06:22:44;147085.16;;;16.14;99.29
28354;BME280;15603;50.878;8.036;2023-05-07T06:25:14;147096.16;;;16.19;98.71
28354;BME280;15603;50.878;8.036;2023-05-07T06:27:42;147194.97;;;16.60;98.27
28354;BME280;15603;50.878;8.036;2023-05-07T06:30:24;147224.28;;;16.73;94.53
28354;BME280;15603;50.878;8.036;2023-05-07T06:32:52;147180.34;;;16.54;94.93
28354;BME280;15603;50.878;8.036;2023-05-07T06:35:19;147259.72;;;16.87;94.46
28354;BME280;15603;50.878;8.036;2023-05-07T06:37:46;147187.69;;;16.57;95.75
28354;BME280;15603;50.878;8.036;2023-05-07T06:40:18;147224.28;;;16.73;95.01
28354;BME280;15603;50.878;8.036;2023-05-07T06:42:46;147232.81;;;16.76;93.92
28354;BME280;15603;50.878;8.036;2023-05-07T06:45:36;147251.16;;;16.84;94.64
28354;BME280;15603;50.878;8.036;2023-05-07T06:48:04;147243.81;;;16.81;95.30
28354;BME280;15603;50.878;8.036;2023-05-07T06:50:38;147263.38;;;16.89;94.02
28354;BME280;15603;50.878;8.036;2023-05-07T06:53:05;147361.03;;;17.30;92.13
28354;BME280;15603;50.878;8.036;2023-05-07T06:55:33;147418.44;;;17.54;91.93
28354;BME280;15603;50.878;8.036;2023-05-07T06:58:00;147488.03;;;17.83;90.31
28354;BME280;15603;50.878;8.036;2023-05-07T07:00:28;147529.59;;;18.01;87.30
28354;BME280;15603;50.878;8.036;2023-05-07T07:02:56;147463.63;;;17.73;87.44
28354;BME280;15603;50.878;8.036;2023-05-07T07:05:26;147546.69;;;18.08;86.76
28354;BME280;15603;50.878;8.036;2023-05-07T07:07:54;147596.78;;;18.29;85.43
28354;BME280;15603;50.878;8.036;2023-05-07T07:10:22;147532.06;;;18.02;84.17
28354;BME280;15603;50.878;8.036;2023-05-07T07:12:50;147585.81;;;18.24;84.38
28354;BME280;15603;50.878;8.036;2023-05-07T07:15:20;147549.16;;;18.09;83.81
28354;BME280;15603;50.878;8.036;2023-05-07T07:17:52;147594.31;;;18.28;85.21
28354;BME280;15603;50.878;8.036;2023-05-07T07:20:20;147668.88;;;18.59;81.94
28354;BME280;15603;50.878;8.036;2023-05-07T07:22:47;147632.22;;;18.44;84.30
28354;BME280;15603;50.878;8.036;2023-05-07T07:25:16;147595.59;;;18.29;84.53
28354;BME280;15603;50.878;8.036;2023-05-07T07:27:47;147593.13;;;18.28;83.35
28354;BME280;15603;50.878;8.036;2023-05-07T07:30:15;147580.88;;;18.22;81.82
28354;BME280;15603;50.878;8.036;2023-05-07T07:32:46;147612.66;;;18.36;81.81
28354;BME280;15603;50.878;8.036;2023-05-07T07:35:14;147664.00;;;18.57;83.12
28354;BME280;15603;50.878;8.036;2023-05-07T07:37:41;147693.31;;;18.70;81.34
28354;BME280;15603;50.878;8.036;2023-05-07T07:40:11;147756.91;;;18.96;80.63
28354;BME280;15603;50.878;8.036;2023-05-07T07:42:38;147712.84;;;18.78;79.15
28354;BME280;15603;50.878;8.036;2023-05-07T07:45:06;147737.38;;;18.88;80.33
28354;BME280;15603;50.878;8.036;2023-05-07T07:47:39;147755.69;;;18.96;78.24
28354;BME280;15603;50.878;8.036;2023-05-07T07:50:07;147698.19;;;18.72;79.67
28354;BME280;15603;50.878;8.036;2023-05-07T07:52:35;147696.97;;;18.71;78.85
28354;BME280;15603;50.878;8.036;2023-05-07T07:55:03;147709.19;;;18.76;79.08
28354;BME280;15603;50.878;8.036;2023-05-07T07:57:30;147690.84;;;18.69;79.52
28354;BME280;15603;50.878;8.036;2023-05-07T07:59:57;147684.75;;;18.66;80.40
28354;BME280;15603;50.878;8.036;2023-05-07T08:02:24;147684.75;;;18.66;79.78
28354;BME280;15603;50.878;8.036;2023-05-07T08:04:52;147667.63;;;18.59;79.71
28354;BME280;15603;50.878;8.036;2023-05-07T08:07:19;147633.44;;;18.44;80.56
28354;BME280;15603;50.878;8.036;2023-05-07T08:09:48;147618.78;;;18.38;81.81
28354;BME280;15603;50.878;8.036;2023-05-07T08:12:18;147627.34;;;18.42;80.73
28354;BME280;15603;50.878;8.036;2023-05-07T08:14:45;147683.53;;;18.66;81.18
28354;BME280;15603;50.878;8.036;2023-05-07T08:17:12;147720.25;;;18.81;79.83
28354;BME280;15603;50.878;8.036;2023-05-07T08:19:43;147764.22;;;18.99;79.52
28354;BME280;15603;50.878;8.036;2023-05-07T08:22:12;147776.44;;;19.05;80.24
28354;BME280;15603;50.878;8.036;2023-05-07T08:24:40;147822.88;;;19.24;78.53
28354;BME280;15603;50.878;8.036;2023-05-07T08:27:07;147915.84;;;19.63;78.26
28354;BME280;15603;50.878;8.036;2023-05-07T08:29:34;147873.00;;;19.45;75.36
28354;BME280;15603;50.878;8.036;2023-05-07T08:32:02;147880.38;;;19.48;76.77
28354;BME280;15603;50.878;8.036;2023-05-07T08:34:29;147907.28;;;19.59;77.88
28354;BME280;15603;50.878;8.036;2023-05-07T08:36:58;147923.16;;;19.66;75.23
28354;BME280;15603;50.878;8.036;2023-05-07T08:39:26;147915.84;;;19.63;76.81
28354;BME280;15603;50.878;8.036;2023-05-07T08:41:55;147848.56;;;19.35;77.42
28354;BME280;15603;50.878;8.036;2023-05-07T08:44:26;147811.91;;;19.19;77.61
28354;BME280;15603;50.878;8.036;2023-05-07T08:46:56;147895.03;;;19.54;77.03
28354;BME280;15603;50.878;8.036;2023-05-07T08:49:25;147888.94;;;19.52;75.28
28354;BME280;15603;50.878;8.036;2023-05-07T08:51:52;147963.53;;;19.83;76.61
28354;BME280;15603;50.878;8.036;2023-05-07T08:54:20;147920.72;;;19.65;76.29
28354;BME280;15603;50.878;8.036;2023-05-07T08:56:48;147940.31;;;19.73;75.18
28354;BME280;15603;50.878;8.036;2023-05-07T08:59:15;147999.03;;;19.98;75.51
28354;BME280;15603;50.878;8.036;2023-05-07T09:01:43;148089.50;;;20.36;72.92
28354;BME280;15603;50.878;8.036;2023-05-07T09:04:11;148045.50;;;20.17;74.31
28354;BME280;15603;50.878;8.036;2023-05-07T09:06:40;148076.03;;;20.30;73.46
28354;BME280;15603;50.878;8.036;2023-05-07T09:09:14;148148.25;;;20.61;72.85
28354;BME280;15603;50.878;8.036;2023-05-07T09:11:41;148207.00;;;20.85;71.75
28354;BME280;15603;50.878;8.036;2023-05-07T09:14:09;148170.28;;;20.70;71.77
28354;BME280;15603;50.878;8.036;2023-05-07T09:16:40;148162.94;;;20.67;72.34
28354;BME280;15603;50.878;8.036;2023-05-07T09:19:08;148128.66;;;20.52;74.67
28354;BME280;15603;50.878;8.036;2023-05-07T09:21:35;148226.56;;;20.93;71.96
28354;BME280;15603;50.878;8.036;2023-05-07T09:24:06;148167.81;;;20.69;71.29
28354;BME280;15603;50.878;8.036;2023-05-07T09:26:37;148138.44;;;20.56;73.38
28354;BME280;15603;50.878;8.036;2023-05-07T09:29:07;148180.06;;;20.74;71.67
28354;BME280;15603;50.878;8.036;2023-05-07T09:31:38;148158.03;;;20.65;72.05
28354;BME280;15603;50.878;8.036;2023-05-07T09:34:06;148138.44;;;20.56;71.16
28354;BME280;15603;50.878;8.036;2023-05-07T09:36:36;148178.88;;;20.73;73.59
28354;BME280;15603;50.878;8.036;2023-05-07T09:39:03;148241.22;;;20.99;72.84
28354;BME280;15603;50.878;8.036;2023-05-07T09:41:31;148273.06;;;21.13;70.26
28354;BME280;15603;50.878;8.036;2023-05-07T09:44:08;148253.50;;;21.05;70.26
28354;BME280;15603;50.878;8.036;2023-05-07T09:46:46;148292.66;;;21.21;70.55
28354;BME280;15603;50.878;8.036;2023-05-07T09:49:23;148308.56;;;21.28;70.01
28354;BME280;15603;50.878;8.036;2023-05-07T09:51:57;148400.41;;;21.66;69.51
28354;BME280;15603;50.878;8.036;2023-05-07T09:54:27;148444.50;;;21.85;66.91
28354;BME280;15603;50.878;8.036;2023-05-07T09:56:58;148455.50;;;21.89;66.42
28354;BME280;15603;50.878;8.036;2023-05-07T09:59:31;148530.16;;;22.21;65.89
28354;BME280;15603;50.878;8.036;2023-05-07T10:02:03;148563.31;;;22.34;65.48
28354;BME280;15603;50.878;8.036;2023-05-07T10:04:38;148503.22;;;22.09;63.31
28354;BME280;15603;50.878;8.036;2023-05-07T10:07:07;148487.31;;;22.03;63.44
28354;BME280;15603;50.878;8.036;2023-05-07T10:09:37;148456.69;;;21.90;65.56
28354;BME280;15603;50.878;8.036;2023-05-07T10:12:09;148444.50;;;21.85;64.87
28354;BME280;15603;50.878;8.036;2023-05-07T10:14:36;148427.34;;;21.77;64.67
28354;BME280;15603;50.878;8.036;2023-05-07T10:17:05;148395.50;;;21.64;66.25
28354;BME280;15603;50.878;8.036;2023-05-07T10:19:33;148439.59;;;21.83;66.53
28354;BME280;15603;50.878;8.036;2023-05-07T10:22:05;148461.59;;;21.92;63.13
28354;BME280;15603;50.878;8.036;2023-05-07T10:24:38;148536.31;;;22.23;62.93
28354;BME280;15603;50.878;8.036;2023-05-07T10:27:12;148582.91;;;22.43;64.69
28354;BME280;15603;50.878;8.036;2023-05-07T10:32:47;148650.22;;;22.71;62.60
28354;BME280;15603;50.878;8.036;2023-05-07T10:35:24;148679.66;;;22.83;63.62
28354;BME280;15603;50.878;8.036;2023-05-07T10:37:54;148641.69;;;22.67;61.38
28354;BME280;15603;50.878;8.036;2023-05-07T10:40:24;148527.75;;;22.20;61.49
28354;BME280;15603;50.878;8.036;2023-05-07T10:42:56;148513.06;;;22.13;60.93
28354;BME280;15603;50.878;8.036;2023-05-07T10:45:26;148477.53;;;21.99;59.72
28354;BME280;15603;50.878;8.036;2023-05-07T10:48:14;148415.09;;;21.72;62.49
28354;BME280;15603;50.878;8.036;2023-05-07T10:51:18;148475.06;;;21.98;63.41
28354;BME280;15603;50.878;8.036;2023-05-07T10:53:47;148488.53;;;22.03;63.95
28354;BME280;15603;50.878;8.036;2023-05-07T10:58:53;148618.41;;;22.58;61.32
28354;BME280;15603;50.878;8.036;2023-05-07T11:01:54;148585.31;;;22.44;62.69
28354;BME280;15603;50.878;8.036;2023-05-07T11:04:29;148613.47;;;22.55;59.76
28354;BME280;15603;50.878;8.036;2023-05-07T11:07:23;148569.41;;;22.37;61.24
28354;BME280;15603;50.878;8.036;2023-05-07T11:09:57;148706.59;;;22.94;59.20
28354;BME280;15603;50.878;8.036;2023-05-07T11:15:11;148696.81;;;22.90;56.91
28354;BME280;15603;50.878;8.036;2023-05-07T11:17:56;148749.50;;;23.12;57.69
28354;BME280;15603;50.878;8.036;2023-05-07T11:26:22;148731.13;;;23.05;58.02
28354;BME280;15603;50.878;8.036;2023-05-07T11:28:49;148821.81;;;23.43;55.27
28354;BME280;15603;50.878;8.036;2023-05-07T11:31:27;148798.53;;;23.33;56.74
28354;BME280;15603;50.878;8.036;2023-05-07T11:33:57;148748.28;;;23.12;56.78
28354;BME280;15603;50.878;8.036;2023-05-07T11:36:25;148785.06;;;23.27;57.59
28354;BME280;15603;50.878;8.036;2023-05-07T11:38:55;148846.31;;;23.53;56.46
28354;BME280;15603;50.878;8.036;2023-05-07T11:41:22;148880.66;;;23.67;54.59
28354;BME280;15603;50.878;8.036;2023-05-07T11:43:59;148897.75;;;23.75;56.09
28354;BME280;15603;50.878;8.036;2023-05-07T11:46:28;148853.69;;;23.56;55.37
28354;BME280;15603;50.878;8.036;2023-05-07T11:48:56;148716.41;;;22.99;56.28
28354;BME280;15603;50.878;8.036;2023-05-07T11:51:24;148626.94;;;22.61;59.35
28354;BME280;15603;50.878;8.036;2023-05-07T11:53:53;148689.44;;;22.87;59.73
28354;BME280;15603;50.878;8.036;2023-05-07T11:56:20;148635.53;;;22.65;60.49
28354;BME280;15603;50.878;8.036;2023-05-07T11:58:47;148635.53;;;22.65;60.28
28354;BME280;15603;50.878;8.036;2023-05-07T12:01:15;148586.56;;;22.44;60.94
28354;BME280;15603;50.878;8.036;2023-05-07T12:03:44;148537.53;;;22.24;61.63
28354;BME280;15603;50.878;8.036;2023-05-07T12:06:16;148521.59;;;22.17;62.84
28354;BME280;15603;50.878;8.036;2023-05-07T12:08:44;148488.53;;;22.03;61.30
28354;BME280;15603;50.878;8.036;2023-05-07T12:11:16;148402.88;;;21.67;62.93
28354;BME280;15603;50.878;8.036;2023-05-07T12:13:45;148378.34;;;21.57;65.50
28354;BME280;15603;50.878;8.036;2023-05-07T12:16:12;148286.53;;;21.18;65.16
28354;BME280;15603;50.878;8.036;2023-05-07T12:18:40;148366.16;;;21.52;65.14
28354;BME280;15603;50.878;8.036;2023-05-07T12:21:08;148353.91;;;21.47;65.14
28354;BME280;15603;50.878;8.036;2023-05-07T12:23:36;148312.22;;;21.29;65.62
28354;BME280;15603;50.878;8.036;2023-05-07T12:26:03;148271.84;;;21.12;66.16
28354;BME280;15603;50.878;8.036;2023-05-07T12:28:38;148197.22;;;20.81;67.81
28354;BME280;15603;50.878;8.036;2023-05-07T12:31:06;148255.97;;;21.06;67.97
28354;BME280;15603;50.878;8.036;2023-05-07T12:33:34;148199.63;;;20.82;70.46
28354;BME280;15603;50.878;8.036;2023-05-07T12:36:06;148238.81;;;20.98;71.69
28354;BME280;15603;50.878;8.036;2023-05-07T12:38:39;148229.03;;;20.94;70.88
28354;BME280;15603;50.878;8.036;2023-05-07T12:41:09;148194.75;;;20.80;74.52
28354;BME280;15603;50.878;8.036;2023-05-07T12:43:36;148145.84;;;20.59;74.38
28354;BME280;15603;50.878;8.036;2023-05-07T12:46:06;148131.06;;;20.53;74.12
28354;BME280;15603;50.878;8.036;2023-05-07T12:48:36;148098.06;;;20.39;77.54
28354;BME280;15603;50.878;8.036;2023-05-07T12:51:05;148106.63;;;20.43;77.90
28354;BME280;15603;50.878;8.036;2023-05-07T12:53:32;148112.72;;;20.46;81.28
28354;BME280;15603;50.878;8.036;2023-05-07T12:56:00;148112.72;;;20.46;81.25
28354;BME280;15603;50.878;8.036;2023-05-07T12:58:28;148144.53;;;20.59;79.42
28354;BME280;15603;50.878;8.036;2023-05-07T13:00:58;148176.41;;;20.72;79.36
28354;BME280;15603;50.878;8.036;2023-05-07T13:03:32;148143.31;;;20.58;79.68
28354;BME280;15603;50.878;8.036;2023-05-07T13:06:04;148160.50;;;20.66;75.50
28354;BME280;15603;50.878;8.036;2023-05-07T13:08:37;148164.19;;;20.67;75.94
28354;BME280;15603;50.878;8.036;2023-05-07T13:11:07;148106.63;;;20.43;75.88